createdAt,value
2023-05-06T00:01:05.205Z,8.63
2023-05-06T00:03:33.097Z,9.48
2023-05-06T00:06:03.169Z,8.50
2023-05-06T00:08:31.160Z,7.95
2023-05-06T00:10:59.048Z,7.10
2023-05-06T00:13:28.920Z,7.35
2023-05-06T00:15:59.483Z,7.60
2023-05-06T00:18:28.234Z,5.88
2023-05-06T00:20:56.359Z,6.20
2023-05-06T00:23:24.371Z,6.13
2023-05-06T00:25:54.542Z,5.30
2023-05-06T00:28:23.027Z,5.90
2023-05-06T00:30:51.407Z,4.93
2023-05-06T00:33:21.353Z,5.03
2023-05-06T00:35:49.801Z,5.63
2023-05-06T00:38:19.745Z,5.72
2023-05-06T00:40:48.656Z,4.82
2023-05-06T00:43:17.324Z,5.00
2023-05-06T00:45:45.628Z,4.90
2023-05-06T00:48:14.828Z,4.70
2023-05-06T00:50:42.638Z,4.45
2023-05-06T00:53:11.145Z,4.20
2023-05-06T00:55:40.307Z,4.50
2023-05-06T00:58:09.144Z,3.70
2023-05-06T01:00:38.945Z,4.30
2023-05-06T01:03:06.795Z,4.13
2023-05-06T01:05:48.050Z,3.58
2023-05-06T01:08:44.557Z,3.72
2023-05-06T01:12:04.170Z,3.90
2023-05-06T01:15:00.319Z,3.83
2023-05-06T01:17:30.945Z,3.05
2023-05-06T01:20:01.876Z,2.72
2023-05-06T01:22:31.621Z,3.05
2023-05-06T01:24:59.448Z,3.00
2023-05-06T01:27:28.786Z,3.13
2023-05-06T01:29:58.436Z,5.38
2023-05-06T01:32:37.072Z,5.07
2023-05-06T01:35:18.809Z,4.10
2023-05-06T01:37:55.886Z,3.83
2023-05-06T01:40:27.727Z,3.33
2023-05-06T01:42:56.803Z,2.40
2023-05-06T01:45:28.363Z,2.17
2023-05-06T01:47:57.489Z,1.80
2023-05-06T01:50:26.390Z,1.80
2023-05-06T01:53:01.825Z,1.90
2023-05-06T01:55:29.744Z,1.92
2023-05-06T01:57:57.723Z,1.80
2023-05-06T02:00:27.078Z,1.80
2023-05-06T02:02:54.912Z,1.60
2023-05-06T02:05:23.012Z,1.63
2023-05-06T02:07:56.217Z,1.40
2023-05-06T02:10:24.166Z,1.40
2023-05-06T02:12:58.583Z,1.50
2023-05-06T02:15:26.458Z,1.55
2023-05-06T02:17:55.286Z,1.63
2023-05-06T02:20:23.831Z,1.60
2023-05-06T02:22:51.923Z,1.50
2023-05-06T02:25:19.865Z,1.20
2023-05-06T02:27:47.664Z,1.10
2023-05-06T02:30:16.099Z,1.23
2023-05-06T02:32:44.101Z,1.27
2023-05-06T02:35:13.195Z,1.30
2023-05-06T02:37:41.536Z,1.00
2023-05-06T02:40:10.163Z,1.10
2023-05-06T02:42:38.014Z,1.15
2023-05-06T02:45:25.419Z,1.43
2023-05-06T02:48:13.417Z,1.58
2023-05-06T02:51:00.193Z,2.10
2023-05-06T02:53:28.525Z,1.50
2023-05-06T02:55:56.948Z,1.60
2023-05-06T02:58:26.334Z,1.67
2023-05-06T03:00:54.129Z,1.60
2023-05-06T03:03:22.572Z,1.83
2023-05-06T03:05:50.428Z,1.20
2023-05-06T03:08:19.140Z,1.35
2023-05-06T03:10:48.389Z,1.30
2023-05-06T03:13:19.597Z,1.40
2023-05-06T03:15:52.781Z,1.40
2023-05-06T03:18:21.424Z,1.10
2023-05-06T03:20:49.757Z,1.30
2023-05-06T03:23:18.252Z,1.17
2023-05-06T03:25:46.908Z,1.45
2023-05-06T03:28:16.171Z,1.55
2023-05-06T03:30:45.916Z,1.50
2023-05-06T03:33:14.416Z,1.63
2023-05-06T03:35:43.463Z,1.50
2023-05-06T03:38:12.151Z,1.67
2023-05-06T03:40:54.228Z,1.63
2023-05-06T03:43:22.584Z,1.70
2023-05-06T03:45:55.435Z,1.80
2023-05-06T03:48:25.194Z,1.70
2023-05-06T03:50:55.336Z,2.00
2023-05-06T03:53:23.422Z,3.30
2023-05-06T03:55:52.835Z,3.10
2023-05-06T03:58:20.766Z,3.65
2023-05-06T04:00:48.688Z,3.90
2023-05-06T04:03:17.099Z,3.58
2023-05-06T04:05:50.819Z,2.72
2023-05-06T04:08:22.815Z,3.40
2023-05-06T04:10:50.527Z,3.60
2023-05-06T04:13:27.084Z,3.42
2023-05-06T04:15:56.944Z,3.30
2023-05-06T04:18:29.788Z,2.90
2023-05-06T04:21:05.012Z,2.50
2023-05-06T04:23:36.177Z,1.95
2023-05-06T04:26:04.673Z,2.88
2023-05-06T04:28:34.332Z,1.90
2023-05-06T04:31:05.052Z,2.03
2023-05-06T04:33:45.979Z,1.67
2023-05-06T04:36:21.058Z,1.83
2023-05-06T04:39:10.613Z,1.85
2023-05-06T04:41:39.578Z,2.10
2023-05-06T04:44:27.463Z,1.63
2023-05-06T04:46:56.850Z,1.88
2023-05-06T04:49:25.571Z,1.50
2023-05-06T04:51:53.828Z,1.58
2023-05-06T04:54:23.055Z,1.67
2023-05-06T04:56:51.345Z,1.73
2023-05-06T04:59:22.310Z,2.05
2023-05-06T05:01:50.393Z,2.30
2023-05-06T05:04:18.472Z,2.15
2023-05-06T05:06:46.297Z,2.15
2023-05-06T05:09:14.884Z,2.35
2023-05-06T05:11:45.162Z,1.95
2023-05-06T05:14:13.036Z,2.10
2023-05-06T05:16:41.879Z,2.03
2023-05-06T05:19:09.895Z,2.10
2023-05-06T05:21:38.029Z,3.03
2023-05-06T05:24:07.569Z,2.13
2023-05-06T05:26:36.006Z,2.03
2023-05-06T05:29:03.985Z,2.70
2023-05-06T05:31:34.492Z,2.50
2023-05-06T05:34:02.914Z,2.50
2023-05-06T05:36:33.671Z,2.30
2023-05-06T05:39:04.434Z,4.80
2023-05-06T05:41:35.076Z,5.38
2023-05-06T05:44:03.543Z,4.57
2023-05-06T05:46:31.791Z,4.18
2023-05-06T05:49:01.127Z,3.40
2023-05-06T05:51:29.224Z,3.08
2023-05-06T05:53:58.856Z,3.22
2023-05-06T05:56:29.424Z,3.33
2023-05-06T05:58:58.054Z,3.28
2023-05-06T06:01:27.154Z,3.17
2023-05-06T06:03:56.859Z,3.13
2023-05-06T06:06:25.085Z,2.97
2023-05-06T06:08:53.514Z,3.17
2023-05-06T06:11:22.698Z,2.80
2023-05-06T06:13:52.324Z,3.22
2023-05-06T06:16:20.812Z,3.40
2023-05-06T06:18:50.277Z,3.42
2023-05-06T06:21:19.555Z,3.70
2023-05-06T06:23:48.104Z,3.97
2023-05-06T06:26:16.208Z,4.88
2023-05-06T06:28:45.054Z,5.05
2023-05-06T06:31:13.127Z,5.35
2023-05-06T06:33:40.844Z,6.50
2023-05-06T06:36:09.016Z,6.10
2023-05-06T06:38:36.804Z,6.95
2023-05-06T06:41:08.067Z,7.75
2023-05-06T06:43:36.993Z,7.65
2023-05-06T06:46:24.325Z,8.30
2023-05-06T06:48:52.227Z,9.07
2023-05-06T06:51:21.841Z,11.65
2023-05-06T06:53:52.451Z,13.40
2023-05-06T06:56:20.209Z,13.00
2023-05-06T06:58:48.028Z,12.65
2023-05-06T07:01:16.530Z,12.65
2023-05-06T07:03:44.327Z,12.13
2023-05-06T07:06:12.750Z,11.23
2023-05-06T07:08:43.165Z,11.13
2023-05-06T07:11:12.512Z,11.13
2023-05-06T07:13:40.729Z,11.48
2023-05-06T07:16:08.560Z,11.18
2023-05-06T07:18:36.708Z,10.27
2023-05-06T07:21:05.805Z,10.40
2023-05-06T07:23:36.060Z,11.55
2023-05-06T07:26:04.647Z,11.35
2023-05-06T07:28:33.743Z,11.73
2023-05-06T07:31:01.773Z,11.13
2023-05-06T07:33:30.098Z,11.77
2023-05-06T07:35:57.962Z,10.95
2023-05-06T07:38:27.686Z,11.27
2023-05-06T07:40:55.384Z,11.32
2023-05-06T07:43:23.757Z,10.40
2023-05-06T07:45:51.628Z,10.77
2023-05-06T07:48:20.355Z,10.48
2023-05-06T07:50:49.303Z,10.77
2023-05-06T07:53:17.637Z,10.55
2023-05-06T07:55:46.172Z,9.98
2023-05-06T07:58:14.209Z,9.45
2023-05-06T08:00:42.289Z,10.13
2023-05-06T08:03:10.294Z,8.75
2023-05-06T08:05:39.139Z,9.15
2023-05-06T08:08:07.643Z,9.43
2023-05-06T08:10:36.092Z,8.70
2023-05-06T08:13:04.248Z,9.07
2023-05-06T08:15:34.991Z,8.57
2023-05-06T08:18:20.998Z,8.32
2023-05-06T08:20:49.899Z,8.50
2023-05-06T08:23:21.162Z,7.78
2023-05-06T08:25:50.296Z,6.70
2023-05-06T08:28:18.241Z,6.90
2023-05-06T08:30:48.652Z,6.72
2023-05-06T08:33:16.552Z,6.22
2023-05-06T08:35:45.168Z,6.65
2023-05-06T08:38:13.138Z,6.45
2023-05-06T08:40:45.435Z,6.35
2023-05-06T08:43:17.014Z,6.47
2023-05-06T08:45:44.989Z,7.22
2023-05-06T08:48:13.216Z,6.45
2023-05-06T08:50:44.820Z,6.80
2023-05-06T08:53:13.657Z,7.65
2023-05-06T08:55:42.775Z,8.48
2023-05-06T08:58:15.896Z,7.53
2023-05-06T09:00:44.649Z,6.97
2023-05-06T09:03:13.840Z,7.00
2023-05-06T09:05:42.427Z,6.85
2023-05-06T09:08:12.115Z,6.82
2023-05-06T09:10:44.910Z,7.70
2023-05-06T09:13:20.508Z,6.20
2023-05-06T09:15:49.479Z,6.55
2023-05-06T09:18:17.559Z,6.20
2023-05-06T09:20:49.203Z,5.60
2023-05-06T09:23:19.242Z,6.10
2023-05-06T09:25:49.861Z,6.07
2023-05-06T09:28:17.784Z,6.40
2023-05-06T09:30:48.003Z,8.65
2023-05-06T09:33:16.532Z,7.63
2023-05-06T09:35:45.963Z,7.72
2023-05-06T09:38:13.782Z,7.57
2023-05-06T09:40:42.508Z,6.70
2023-05-06T09:43:11.141Z,7.22
2023-05-06T09:45:39.500Z,6.57
2023-05-06T09:48:08.807Z,5.85
2023-05-06T09:50:37.252Z,6.63
2023-05-06T09:53:06.661Z,5.85
2023-05-06T09:55:36.684Z,5.38
2023-05-06T09:58:06.523Z,5.13
2023-05-06T10:00:35.711Z,6.90
2023-05-06T10:03:05.090Z,6.13
2023-05-06T10:05:34.092Z,5.40
2023-05-06T10:08:04.519Z,5.05
2023-05-06T10:10:37.578Z,4.78
2023-05-06T10:13:05.514Z,4.30
2023-05-06T10:15:33.429Z,3.00
2023-05-06T10:18:01.925Z,5.70
2023-05-06T10:20:31.882Z,4.53
2023-05-06T10:23:08.761Z,3.80
2023-05-06T10:28:16.660Z,3.33
2023-05-06T10:30:59.461Z,3.28
2023-05-06T10:33:28.524Z,3.28
2023-05-06T10:36:16.215Z,2.58
2023-05-06T10:38:47.495Z,3.25
2023-05-06T10:41:16.655Z,3.10
2023-05-06T10:43:45.510Z,3.65
2023-05-06T10:46:15.704Z,4.60
2023-05-06T10:49:06.856Z,3.30
2023-05-06T10:51:39.086Z,2.63
2023-05-06T10:54:19.113Z,2.33
2023-05-06T10:56:50.852Z,2.42
2023-05-06T10:59:24.673Z,2.70
2023-05-06T11:02:11.015Z,3.17
2023-05-06T11:04:39.772Z,2.90
2023-05-06T11:07:21.365Z,2.75
2023-05-06T11:10:08.373Z,3.28
2023-05-06T11:12:50.328Z,2.45
2023-05-06T11:15:27.519Z,2.20
2023-05-06T11:17:57.541Z,2.42
2023-05-06T11:20:26.948Z,2.28
2023-05-06T11:22:54.900Z,2.53
2023-05-06T11:25:42.035Z,2.70
2023-05-06T11:28:12.147Z,3.10
2023-05-06T11:30:54.009Z,3.40
2023-05-06T11:33:24.312Z,3.30
2023-05-06T11:35:53.395Z,3.00
2023-05-06T11:38:21.673Z,3.53
2023-05-06T11:40:49.507Z,4.18
2023-05-06T11:43:18.460Z,4.22
2023-05-06T11:45:50.881Z,4.43
2023-05-06T11:48:19.615Z,3.90
2023-05-06T11:50:48.874Z,3.40
2023-05-06T11:53:22.745Z,3.50
2023-05-06T11:55:54.357Z,3.40
2023-05-06T11:58:27.227Z,3.85
2023-05-06T12:01:02.822Z,3.72
2023-05-06T12:03:33.911Z,5.97
2023-05-06T12:06:02.579Z,6.45
2023-05-06T12:08:34.095Z,6.38
2023-05-06T12:11:08.400Z,5.35
2023-05-06T12:13:37.322Z,5.80
2023-05-06T12:16:08.044Z,5.13
2023-05-06T12:18:36.637Z,5.20
2023-05-06T12:21:04.739Z,5.70
2023-05-06T12:23:32.591Z,5.63
2023-05-06T12:26:05.191Z,5.25
2023-05-06T12:28:36.944Z,6.68
2023-05-06T12:31:24.347Z,5.57
2023-05-06T12:36:21.462Z,3.30
2023-05-06T12:38:54.217Z,4.22
2023-05-06T12:41:24.889Z,5.10
2023-05-06T12:43:53.044Z,8.30
2023-05-06T12:46:21.092Z,7.28
2023-05-06T12:48:59.006Z,7.07
2023-05-06T12:51:29.010Z,6.75
2023-05-06T12:53:57.268Z,6.03
2023-05-06T12:56:25.372Z,6.60
2023-05-06T12:59:02.530Z,6.47
2023-05-06T13:01:31.836Z,6.53
2023-05-06T13:03:59.715Z,6.00
2023-05-06T13:06:27.671Z,5.20
2023-05-06T13:08:55.578Z,5.85
2023-05-06T13:11:25.978Z,5.97
2023-05-06T13:13:54.211Z,6.05
2023-05-06T13:16:23.379Z,7.50
2023-05-06T13:18:51.478Z,8.15
2023-05-06T13:21:19.219Z,10.05
2023-05-06T13:23:48.777Z,10.60
2023-05-06T13:26:19.690Z,8.63
2023-05-06T13:28:47.637Z,10.15
2023-05-06T13:31:15.694Z,9.43
2023-05-06T13:33:44.009Z,9.38
2023-05-06T13:36:11.896Z,7.75
2023-05-06T13:38:40.236Z,5.78
2023-05-06T13:41:09.133Z,5.20
2023-05-06T13:43:37.404Z,4.50
2023-05-06T13:46:09.294Z,4.10
2023-05-06T13:48:38.419Z,4.32
2023-05-06T13:51:06.184Z,3.92
2023-05-06T13:53:34.134Z,3.67
2023-05-06T13:56:02.115Z,3.42
2023-05-06T13:58:31.239Z,3.80
2023-05-06T14:01:01.809Z,3.17
2023-05-06T14:03:30.359Z,2.80
2023-05-06T14:05:59.923Z,2.70
2023-05-06T14:08:28.363Z,2.72
2023-05-06T14:10:57.303Z,2.35
2023-05-06T14:13:25.161Z,2.47
2023-05-06T14:15:55.047Z,2.47
2023-05-06T14:18:26.455Z,2.72
2023-05-06T14:20:54.963Z,4.10
2023-05-06T14:23:23.314Z,4.30
2023-05-06T14:25:51.310Z,4.38
2023-05-06T14:28:25.033Z,3.75
2023-05-06T14:30:54.814Z,4.10
2023-05-06T14:33:25.084Z,3.58
2023-05-06T14:35:55.031Z,2.85
2023-05-06T14:38:24.712Z,2.67
2023-05-06T14:40:52.567Z,2.40
2023-05-06T14:43:20.454Z,2.63
2023-05-06T14:45:48.455Z,2.45
2023-05-06T14:48:16.893Z,2.58
2023-05-06T14:50:44.744Z,3.00
2023-05-06T14:53:12.458Z,2.90
2023-05-06T14:55:41.456Z,2.65
2023-05-06T14:58:09.322Z,2.85
2023-05-06T15:00:37.239Z,2.58
2023-05-06T15:03:05.864Z,2.53
2023-05-06T15:05:37.405Z,2.65
2023-05-06T15:08:06.650Z,2.30
2023-05-06T15:10:34.757Z,2.83
2023-05-06T15:13:06.004Z,2.80
2023-05-06T15:15:35.611Z,2.90
2023-05-06T15:18:04.859Z,2.88
2023-05-06T15:20:32.868Z,2.70
2023-05-06T15:23:01.794Z,2.95
2023-05-06T15:25:35.792Z,2.85
2023-05-06T15:28:08.438Z,3.10
2023-05-06T15:30:37.891Z,2.60
2023-05-06T15:33:05.946Z,3.15
2023-05-06T15:35:34.243Z,3.00
2023-05-06T15:38:04.560Z,2.88
2023-05-06T15:40:37.029Z,2.80
2023-05-06T15:43:06.040Z,2.90
2023-05-06T15:45:33.830Z,2.30
2023-05-06T15:48:15.365Z,1.92
2023-05-06T15:50:53.230Z,2.50
2023-05-06T15:53:48.575Z,2.50
2023-05-06T15:56:40.738Z,3.10
2023-05-06T15:59:17.905Z,3.90
2023-05-06T16:02:25.717Z,3.75
2023-05-06T16:05:02.034Z,3.60
2023-05-06T16:07:43.317Z,3.15
2023-05-06T16:10:19.446Z,3.22
2023-05-06T16:12:57.592Z,3.33
2023-05-06T16:15:35.751Z,3.85
2023-05-06T16:18:14.229Z,4.00
2023-05-06T16:20:43.038Z,3.50
2023-05-06T16:23:10.950Z,4.35
2023-05-06T16:25:38.602Z,5.72
2023-05-06T16:28:08.944Z,6.68
2023-05-06T16:30:40.384Z,5.82
2023-05-06T16:33:44.602Z,4.82
2023-05-06T16:36:40.528Z,3.83
2023-05-06T16:39:12.317Z,3.67
2023-05-06T16:41:44.407Z,3.13
2023-05-06T16:44:12.496Z,3.63
2023-05-06T16:46:40.364Z,3.50
2023-05-06T16:49:10.243Z,3.10
2023-05-06T16:51:40.912Z,2.72
2023-05-06T16:54:08.989Z,2.92
2023-05-06T16:56:50.907Z,3.13
2023-05-06T16:59:22.395Z,3.35
2023-05-06T17:01:54.115Z,2.70
2023-05-06T17:04:24.707Z,2.30
2023-05-06T17:06:55.288Z,2.40
2023-05-06T17:09:23.082Z,2.33
2023-05-06T17:11:50.956Z,2.47
2023-05-06T17:14:20.101Z,2.40
2023-05-06T17:16:49.326Z,2.33
2023-05-06T17:19:25.344Z,2.42
2023-05-06T17:21:53.501Z,2.47
2023-05-06T17:24:23.717Z,2.63
2023-05-06T17:26:51.703Z,3.10
2023-05-06T17:29:22.312Z,3.38
2023-05-06T17:31:50.317Z,2.78
2023-05-06T17:34:18.842Z,3.33
2023-05-06T17:36:46.720Z,3.88
2023-05-06T17:39:17.150Z,3.40
2023-05-06T17:41:45.928Z,3.03
2023-05-06T17:44:18.457Z,4.22
2023-05-06T17:46:46.460Z,4.32
2023-05-06T17:49:14.442Z,3.28
2023-05-06T17:51:46.404Z,3.30
2023-05-06T17:54:16.056Z,2.90
2023-05-06T17:56:52.397Z,2.58
2023-05-06T17:59:26.194Z,2.88
2023-05-06T18:01:54.170Z,2.50
2023-05-06T18:04:40.449Z,2.50
2023-05-06T18:07:16.182Z,2.88
2023-05-06T18:09:52.516Z,3.67
2023-05-06T18:12:33.750Z,5.20
2023-05-06T18:15:09.407Z,7.03
2023-05-06T18:17:44.905Z,6.32
2023-05-06T18:20:13.490Z,5.85
2023-05-06T18:22:43.056Z,4.97
2023-05-06T18:25:13.937Z,3.53
2023-05-06T18:27:42.906Z,3.75
2023-05-06T18:30:18.442Z,3.83
2023-05-06T18:32:51.342Z,3.97
2023-05-06T18:35:24.005Z,3.40
2023-05-06T18:37:56.397Z,3.30
2023-05-06T18:40:28.421Z,4.10
2023-05-06T18:42:56.848Z,3.45
2023-05-06T18:45:25.814Z,3.42
2023-05-06T18:47:56.663Z,3.75
2023-05-06T18:50:32.356Z,3.28
2023-05-06T18:53:32.433Z,3.70
2023-05-06T18:56:11.924Z,3.50
2023-05-06T18:58:43.223Z,4.28
2023-05-06T19:01:12.197Z,5.10
2023-05-06T19:03:59.656Z,4.38
2023-05-06T19:09:08.476Z,4.15
2023-05-06T19:11:36.472Z,4.75
2023-05-06T19:14:05.263Z,4.30
2023-05-06T19:16:33.450Z,4.32
2023-05-06T19:19:03.550Z,3.80
2023-05-06T19:21:31.866Z,4.70
2023-05-06T19:24:01.194Z,4.43
2023-05-06T19:26:29.699Z,4.50
2023-05-06T19:28:57.748Z,4.93
2023-05-06T19:31:28.486Z,5.57
2023-05-06T19:33:57.273Z,7.35
2023-05-06T19:36:28.436Z,9.40
2023-05-06T19:38:57.388Z,8.27
2023-05-06T19:41:26.514Z,7.90
2023-05-06T19:44:00.129Z,7.20
2023-05-06T19:46:30.689Z,8.85
2023-05-06T19:49:00.775Z,8.18
2023-05-06T19:51:30.741Z,7.97
2023-05-06T19:53:59.492Z,7.20
2023-05-06T19:56:28.735Z,7.93
2023-05-06T19:59:00.038Z,8.48
2023-05-06T20:01:27.916Z,8.23
2023-05-06T20:03:56.049Z,8.82
2023-05-06T20:06:25.510Z,9.07
2023-05-06T20:08:56.697Z,8.13
2023-05-06T20:11:27.690Z,8.75
2023-05-06T20:13:55.827Z,9.73
2023-05-06T20:16:23.948Z,10.05
2023-05-06T20:18:53.426Z,12.48
2023-05-06T20:21:21.358Z,12.05
2023-05-06T20:23:51.014Z,12.23
2023-05-06T20:26:18.876Z,11.43
2023-05-06T20:28:47.007Z,10.65
2023-05-06T20:31:15.361Z,8.98
2023-05-06T20:33:43.376Z,8.57
2023-05-06T20:36:14.280Z,8.23
2023-05-06T20:38:43.098Z,7.80
2023-05-06T20:41:14.248Z,8.10
2023-05-06T20:47:15.520Z,8.95
2023-05-06T20:49:51.547Z,10.02
2023-05-06T20:52:50.664Z,11.13
2023-05-06T20:58:35.545Z,9.32
2023-05-06T21:01:13.636Z,8.35
2023-05-06T21:06:57.847Z,7.95
2023-05-06T21:09:28.065Z,7.60
2023-05-06T21:11:57.582Z,8.10
2023-05-06T21:14:29.261Z,7.85
2023-05-06T21:16:57.918Z,7.63
2023-05-06T21:19:26.142Z,7.88
2023-05-06T21:21:56.928Z,7.53
2023-05-06T21:24:25.457Z,7.63
2023-05-06T21:27:07.054Z,7.38
2023-05-06T21:29:46.850Z,6.70
2023-05-06T21:32:18.738Z,6.78
2023-05-06T21:34:47.566Z,6.50
2023-05-06T21:37:15.631Z,6.95
2023-05-06T21:39:46.504Z,6.32
2023-05-06T21:42:16.535Z,5.53
2023-05-06T21:44:45.893Z,5.75
2023-05-06T21:47:14.773Z,5.18
2023-05-06T21:49:43.492Z,5.15
2023-05-06T21:52:11.369Z,4.75
2023-05-06T21:54:46.214Z,4.90
2023-05-06T21:57:15.097Z,4.70
2023-05-06T21:59:46.022Z,4.80
2023-05-06T22:02:16.670Z,4.60
2023-05-06T22:04:49.755Z,4.78
2023-05-06T22:07:20.845Z,4.18
2023-05-06T22:09:51.407Z,4.68
2023-05-06T22:12:24.831Z,5.30
2023-05-06T22:15:15.805Z,5.38
2023-05-06T22:18:01.567Z,5.60
2023-05-06T22:20:51.056Z,6.63
2023-05-06T22:23:40.788Z,7.38
2023-05-06T22:26:24.736Z,6.60
2023-05-06T22:28:54.765Z,6.45
2023-05-06T22:34:25.064Z,5.38
2023-05-06T22:37:14.055Z,4.43
2023-05-06T22:39:48.192Z,4.22
2023-05-06T22:42:19.295Z,3.65
2023-05-06T22:45:02.990Z,4.00
2023-05-06T22:47:52.129Z,3.75
2023-05-06T22:50:28.926Z,4.13
2023-05-06T22:56:16.207Z,3.30
2023-05-06T22:58:45.915Z,3.10
2023-05-06T23:01:16.790Z,3.47
2023-05-06T23:03:45.054Z,3.10
2023-05-06T23:09:11.196Z,3.15
2023-05-06T23:11:46.500Z,3.05
2023-05-06T23:14:36.152Z,3.10
2023-05-06T23:17:27.342Z,2.80
2023-05-06T23:20:45.759Z,2.85
2023-05-06T23:23:25.427Z,2.95
2023-05-06T23:29:50.687Z,3.03
2023-05-06T23:32:28.944Z,2.90
2023-05-06T23:35:17.659Z,3.85
2023-05-06T23:37:59.088Z,3.00
2023-05-06T23:40:34.208Z,3.47
2023-05-06T23:43:07.451Z,3.35
2023-05-06T23:45:35.761Z,3.25
2023-05-06T23:48:18.691Z,3.38
2023-05-06T23:50:57.805Z,3.30
2023-05-06T23:53:31.005Z,2.97
2023-05-06T23:56:22.615Z,3.30
2023-05-06T23:59:37.040Z,3.10
